createdAt,value
2023-04-16T00:00:14.266Z,26.50
2023-04-16T00:01:14.554Z,27.10
2023-04-16T00:02:14.931Z,28.00
2023-04-16T00:03:15.323Z,27.80
2023-04-16T00:04:15.547Z,28.10
2023-04-16T00:05:15.699Z,29.40
2023-04-16T00:06:15.980Z,27.80
2023-04-16T00:07:16.258Z,27.50
2023-04-16T00:08:16.542Z,26.20
2023-04-16T00:09:16.848Z,25.20
2023-04-16T00:10:17.173Z,24.30
2023-04-16T00:11:17.465Z,26.60
2023-04-16T00:12:17.776Z,31.40
2023-04-16T00:13:18.072Z,30.50
2023-04-16T00:14:18.373Z,29.70
2023-04-16T00:15:18.663Z,31.10
2023-04-16T00:16:18.969Z,29.80
2023-04-16T00:17:19.263Z,27.70
2023-04-16T00:18:19.545Z,26.80
2023-04-16T00:19:19.811Z,27.50
2023-04-16T00:20:20.128Z,27.80
2023-04-16T00:21:20.450Z,28.30
2023-04-16T00:22:20.725Z,26.40
2023-04-16T00:23:20.999Z,23.20
2023-04-16T00:24:21.326Z,23.20
2023-04-16T00:25:21.620Z,22.10
2023-04-16T00:26:21.894Z,23.00
2023-04-16T00:27:22.170Z,21.30
2023-04-16T00:28:22.446Z,21.30
2023-04-16T00:29:22.722Z,22.20
2023-04-16T00:30:23.052Z,21.00
2023-04-16T00:31:23.379Z,22.10
2023-04-16T00:32:23.691Z,21.90
2023-04-16T00:33:23.975Z,23.20
2023-04-16T00:34:24.266Z,23.10
2023-04-16T00:35:24.586Z,22.30
2023-04-16T00:36:24.884Z,21.70
2023-04-16T00:37:25.156Z,22.00
2023-04-16T00:38:25.471Z,23.40
2023-04-16T00:39:25.789Z,22.30
2023-04-16T00:40:26.070Z,21.60
2023-04-16T00:41:26.378Z,19.70
2023-04-16T00:42:26.683Z,19.70
2023-04-16T00:43:27.023Z,19.20
2023-04-16T00:44:27.310Z,19.40
2023-04-16T00:45:27.634Z,20.50
2023-04-16T00:46:27.997Z,19.80
2023-04-16T00:47:28.380Z,21.60
2023-04-16T00:48:28.620Z,20.20
2023-04-16T00:49:28.765Z,19.50
2023-04-16T00:50:29.044Z,20.60
2023-04-16T00:51:29.358Z,20.60
2023-04-16T00:52:29.668Z,20.50
2023-04-16T00:53:29.969Z,21.20
2023-04-16T00:54:30.225Z,19.90
2023-04-16T00:55:30.511Z,20.60
2023-04-16T00:56:30.824Z,19.40
2023-04-16T00:57:31.099Z,20.70
2023-04-16T00:58:31.416Z,19.80
2023-04-16T00:59:31.694Z,20.60
2023-04-16T01:00:31.994Z,21.80
2023-04-16T01:01:32.329Z,24.20
2023-04-16T01:02:32.625Z,21.70
2023-04-16T01:03:33.033Z,21.90
2023-04-16T01:04:33.216Z,24.50
2023-04-16T01:05:33.488Z,23.90
2023-04-16T01:06:33.796Z,23.20
2023-04-16T01:07:34.108Z,26.60
2023-04-16T01:08:34.431Z,22.00
2023-04-16T01:09:34.708Z,22.10
2023-04-16T01:10:35.012Z,22.50
2023-04-16T01:11:35.325Z,21.20
2023-04-16T01:12:35.585Z,20.80
2023-04-16T01:13:35.906Z,20.50
2023-04-16T01:14:36.228Z,21.90
2023-04-16T01:15:36.545Z,22.60
2023-04-16T01:16:36.801Z,22.00
2023-04-16T01:17:37.118Z,22.30
2023-04-16T01:18:37.421Z,23.10
2023-04-16T01:19:37.714Z,22.60
2023-04-16T01:20:37.974Z,22.20
2023-04-16T01:21:38.274Z,22.10
2023-04-16T01:22:38.576Z,22.40
2023-04-16T01:23:38.852Z,22.00
2023-04-16T01:24:39.176Z,20.60
2023-04-16T01:25:39.446Z,21.50
2023-04-16T01:26:39.746Z,21.40
2023-04-16T01:27:40.017Z,21.00
2023-04-16T01:28:40.305Z,19.40
2023-04-16T01:29:40.620Z,20.50
2023-04-16T01:30:40.894Z,20.70
2023-04-16T01:31:41.264Z,22.00
2023-04-16T01:32:41.556Z,21.60
2023-04-16T01:33:41.825Z,21.60
2023-04-16T01:34:42.114Z,21.50
2023-04-16T01:35:42.379Z,22.30
2023-04-16T01:36:42.743Z,25.80
2023-04-16T01:37:42.992Z,26.20
2023-04-16T01:38:43.283Z,26.60
2023-04-16T01:39:43.575Z,26.50
2023-04-16T01:40:43.874Z,27.70
2023-04-16T01:41:44.144Z,32.00
2023-04-16T01:42:44.458Z,32.60
2023-04-16T01:43:44.760Z,31.20
2023-04-16T01:44:45.037Z,31.60
2023-04-16T01:45:45.328Z,32.00
2023-04-16T01:46:45.658Z,32.00
2023-04-16T01:47:45.987Z,29.90
2023-04-16T01:48:46.248Z,30.60
2023-04-16T01:49:46.560Z,28.40
2023-04-16T01:50:46.914Z,26.10
2023-04-16T01:51:47.164Z,24.00
2023-04-16T01:52:47.436Z,23.90
2023-04-16T01:53:47.726Z,23.90
2023-04-16T01:54:48.006Z,23.20
2023-04-16T01:55:48.316Z,22.30
2023-04-16T01:56:48.610Z,21.80
2023-04-16T01:57:48.929Z,21.90
2023-04-16T01:58:49.248Z,22.40
2023-04-16T01:59:49.513Z,23.80
2023-04-16T02:00:49.870Z,22.20
2023-04-16T02:01:50.156Z,22.50
2023-04-16T02:02:50.560Z,23.90
2023-04-16T02:03:50.834Z,24.80
2023-04-16T02:04:51.021Z,26.20
2023-04-16T02:05:51.322Z,25.00
2023-04-16T02:06:51.609Z,25.70
2023-04-16T02:07:51.903Z,25.70
2023-04-16T02:08:52.176Z,27.10
2023-04-16T02:09:52.486Z,26.60
2023-04-16T02:10:52.783Z,26.30
2023-04-16T02:11:53.119Z,27.20
2023-04-16T02:12:53.404Z,27.60
2023-04-16T02:13:53.717Z,27.40
2023-04-16T02:14:54.028Z,28.10
2023-04-16T02:15:54.313Z,24.90
2023-04-16T02:16:54.630Z,24.80
2023-04-16T02:17:54.897Z,27.50
2023-04-16T02:18:55.171Z,27.10
2023-04-16T02:19:55.459Z,26.80
2023-04-16T02:20:55.764Z,27.20
2023-04-16T02:21:56.074Z,26.40
2023-04-16T02:22:56.384Z,27.40
2023-04-16T02:23:56.699Z,27.30
2023-04-16T02:24:57.015Z,29.80
2023-04-16T02:25:57.307Z,30.30
2023-04-16T02:26:57.609Z,27.90
2023-04-16T02:27:57.885Z,27.10
2023-04-16T02:28:58.182Z,27.20
2023-04-16T02:29:58.474Z,26.00
2023-04-16T02:30:58.792Z,26.50
2023-04-16T02:31:59.119Z,29.50
2023-04-16T02:32:59.479Z,29.40
2023-04-16T02:33:59.637Z,26.60
2023-04-16T02:34:59.912Z,27.50
2023-04-16T02:36:00.255Z,27.80
2023-04-16T02:37:00.534Z,27.60
2023-04-16T02:38:00.843Z,28.20
2023-04-16T02:39:01.109Z,28.20
2023-04-16T02:40:01.407Z,29.60
2023-04-16T02:41:01.731Z,31.20
2023-04-16T02:42:01.997Z,31.20
2023-04-16T02:43:02.318Z,30.10
2023-04-16T02:44:02.590Z,32.10
2023-04-16T02:45:02.902Z,31.30
2023-04-16T02:46:03.182Z,30.80
2023-04-16T02:47:03.479Z,32.40
2023-04-16T02:48:03.837Z,33.10
2023-04-16T02:49:04.134Z,32.10
2023-04-16T02:50:11.479Z,32.80
2023-04-16T02:51:04.723Z,34.10
2023-04-16T02:52:07.714Z,33.60
2023-04-16T02:53:06.996Z,35.40
2023-04-16T02:54:05.620Z,34.40
2023-04-16T02:55:05.860Z,33.50
2023-04-16T02:56:06.167Z,34.50
2023-04-16T02:57:06.446Z,34.60
2023-04-16T02:58:06.753Z,34.70
2023-04-16T02:59:07.283Z,34.80
2023-04-16T03:00:07.362Z,32.40
2023-04-16T03:01:07.672Z,32.70
2023-04-16T03:02:08.031Z,32.40
2023-04-16T03:03:08.244Z,31.70
2023-04-16T03:04:08.566Z,32.10
2023-04-16T03:05:08.824Z,32.00
2023-04-16T03:06:09.108Z,32.20
2023-04-16T03:07:09.386Z,32.00
2023-04-16T03:08:09.701Z,30.80
2023-04-16T03:09:10.238Z,31.80
2023-04-16T03:10:10.282Z,32.00
2023-04-16T03:11:10.580Z,30.70
2023-04-16T03:12:10.873Z,28.60
2023-04-16T03:13:11.167Z,29.10
2023-04-16T03:14:11.444Z,29.40
2023-04-16T03:15:11.731Z,29.30
2023-04-16T03:16:12.065Z,31.10
2023-04-16T03:17:12.294Z,30.40
2023-04-16T03:18:12.570Z,30.50
2023-04-16T03:19:12.916Z,31.60
2023-04-16T03:20:13.177Z,30.80
2023-04-16T03:21:13.494Z,30.80
2023-04-16T03:22:13.816Z,30.10
2023-04-16T03:23:14.093Z,30.60
2023-04-16T03:24:14.425Z,31.00
2023-04-16T03:25:14.709Z,31.70
2023-04-16T03:26:14.982Z,33.70
2023-04-16T03:27:15.253Z,34.30
2023-04-16T03:28:15.539Z,32.90
2023-04-16T03:29:15.855Z,34.40
2023-04-16T03:30:16.147Z,32.80
2023-04-16T03:31:16.493Z,32.70
2023-04-16T03:32:16.762Z,33.90
2023-04-16T03:33:17.036Z,33.30
2023-04-16T03:34:17.307Z,34.20
2023-04-16T03:35:17.620Z,32.50
2023-04-16T03:36:17.900Z,32.20
2023-04-16T03:37:18.220Z,34.10
2023-04-16T03:38:18.513Z,31.50
2023-04-16T03:39:18.802Z,32.40
2023-04-16T03:40:19.079Z,34.70
2023-04-16T03:41:19.365Z,34.60
2023-04-16T03:42:19.650Z,36.00
2023-04-16T03:43:19.966Z,37.00
2023-04-16T03:44:20.237Z,35.80
2023-04-16T03:45:20.540Z,33.10
2023-04-16T03:46:20.916Z,34.20
2023-04-16T03:47:21.181Z,35.30
2023-04-16T03:48:21.414Z,33.10
2023-04-16T03:49:21.680Z,35.30
2023-04-16T03:50:22.012Z,34.90
2023-04-16T03:51:22.243Z,32.20
2023-04-16T03:52:22.530Z,31.00
2023-04-16T03:53:22.825Z,29.90
2023-04-16T03:54:23.202Z,30.90
2023-04-16T03:55:23.461Z,31.60
2023-04-16T03:56:23.760Z,33.10
2023-04-16T03:57:24.040Z,32.50
2023-04-16T03:58:24.353Z,31.80
2023-04-16T03:59:24.681Z,31.90
2023-04-16T04:00:24.986Z,31.00
2023-04-16T04:01:25.309Z,30.40
2023-04-16T04:02:25.726Z,31.40
2023-04-16T04:03:26.045Z,32.30
2023-04-16T04:04:26.349Z,33.50
2023-04-16T04:05:26.495Z,33.00
2023-04-16T04:06:26.784Z,34.90
2023-04-16T04:07:27.078Z,34.40
2023-04-16T04:08:27.383Z,36.90
2023-04-16T04:09:27.700Z,36.40
2023-04-16T04:10:28.004Z,36.80
2023-04-16T04:11:28.279Z,33.60
2023-04-16T04:12:28.586Z,33.90
2023-04-16T04:13:28.854Z,33.10
2023-04-16T04:14:29.181Z,34.30
2023-04-16T04:15:29.434Z,33.30
2023-04-16T04:16:29.737Z,35.50
2023-04-16T04:17:30.148Z,34.70
2023-04-16T04:18:30.271Z,34.10
2023-04-16T04:19:30.584Z,36.40
2023-04-16T04:20:30.860Z,34.60
2023-04-16T04:21:31.182Z,37.60
2023-04-16T04:22:31.481Z,37.20
2023-04-16T04:23:31.780Z,38.10
2023-04-16T04:24:32.123Z,38.40
2023-04-16T04:25:32.386Z,37.00
2023-04-16T04:26:32.712Z,36.40
2023-04-16T04:27:33.002Z,36.30
2023-04-16T04:28:33.287Z,37.60
2023-04-16T04:29:33.606Z,38.60
2023-04-16T04:30:33.867Z,37.90
2023-04-16T04:31:34.216Z,36.50
2023-04-16T04:32:34.522Z,36.00
2023-04-16T04:33:34.780Z,36.30
2023-04-16T04:34:35.100Z,38.90
2023-04-16T04:35:35.386Z,40.30
2023-04-16T04:36:35.707Z,41.00
2023-04-16T04:37:36.011Z,39.90
2023-04-16T04:38:36.331Z,39.60
2023-04-16T04:39:36.624Z,37.70
2023-04-16T04:40:36.924Z,40.60
2023-04-16T04:41:37.225Z,43.70
2023-04-16T04:42:37.538Z,41.30
2023-04-16T04:43:37.847Z,41.00
2023-04-16T04:44:38.156Z,40.80
2023-04-16T04:45:38.518Z,39.70
2023-04-16T04:46:38.667Z,39.60
2023-04-16T04:47:39.032Z,42.10
2023-04-16T04:48:39.368Z,42.00
2023-04-16T04:49:39.654Z,42.90
2023-04-16T04:50:39.941Z,42.40
2023-04-16T04:51:40.228Z,40.70
2023-04-16T04:52:40.568Z,40.20
2023-04-16T04:53:40.893Z,43.40
2023-04-16T04:54:41.246Z,46.10
2023-04-16T04:55:41.564Z,49.10
2023-04-16T04:56:41.844Z,49.20
2023-04-16T04:57:42.209Z,48.20
2023-04-16T04:58:42.467Z,47.60
2023-04-16T04:59:42.768Z,47.30
2023-04-16T05:00:43.049Z,47.50
2023-04-16T05:01:43.339Z,48.20
2023-04-16T05:02:43.777Z,46.60
2023-04-16T05:03:44.092Z,42.90
2023-04-16T05:04:44.347Z,44.50
2023-04-16T05:05:44.614Z,44.60
2023-04-16T05:06:44.937Z,42.50
2023-04-16T05:07:45.246Z,43.00
2023-04-16T05:08:45.555Z,42.90
2023-04-16T05:09:45.907Z,42.40
2023-04-16T05:10:46.239Z,42.30
2023-04-16T05:11:46.585Z,42.30
2023-04-16T05:12:48.801Z,42.20
2023-04-16T05:13:47.112Z,43.00
2023-04-16T05:14:47.418Z,42.60
2023-04-16T05:15:47.763Z,42.10
2023-04-16T05:16:48.096Z,43.80
2023-04-16T05:17:48.413Z,43.60
2023-04-16T05:18:48.714Z,44.80
2023-04-16T05:19:49.023Z,44.20
2023-04-16T05:20:49.361Z,44.30
2023-04-16T05:21:49.673Z,45.40
2023-04-16T05:22:50.009Z,44.30
2023-04-16T05:23:50.347Z,46.60
2023-04-16T05:24:50.656Z,45.50
2023-04-16T05:25:51.022Z,45.30
2023-04-16T05:26:51.247Z,45.50
2023-04-16T05:27:51.440Z,46.20
2023-04-16T05:28:51.753Z,45.40
2023-04-16T05:29:52.102Z,47.50
2023-04-16T05:30:52.357Z,45.30
2023-04-16T05:31:52.646Z,45.20
2023-04-16T05:32:52.978Z,47.20
2023-04-16T05:33:53.260Z,47.30
2023-04-16T05:34:53.588Z,47.20
2023-04-16T05:35:53.915Z,45.40
2023-04-16T05:36:54.216Z,48.50
2023-04-16T05:37:54.561Z,47.70
2023-04-16T05:38:54.789Z,48.30
2023-04-16T05:39:55.009Z,48.70
2023-04-16T05:40:55.334Z,48.00
2023-04-16T05:41:55.648Z,49.90
2023-04-16T05:42:55.947Z,49.00
2023-04-16T05:43:56.270Z,50.00
2023-04-16T05:44:56.637Z,46.30
2023-04-16T05:45:56.893Z,49.50
2023-04-16T05:46:57.216Z,50.00
2023-04-16T05:47:57.534Z,49.10
2023-04-16T05:48:57.816Z,48.90
2023-04-16T05:49:58.166Z,49.70
2023-04-16T05:50:58.390Z,51.50
2023-04-16T05:51:58.604Z,51.70
2023-04-16T05:52:58.928Z,50.60
2023-04-16T05:53:59.212Z,49.40
2023-04-16T05:54:59.574Z,49.20
2023-04-16T05:55:59.766Z,47.50
2023-04-16T05:57:00.123Z,49.90
2023-04-16T05:58:00.290Z,49.30
2023-04-16T05:59:00.604Z,48.40
2023-04-16T06:00:00.956Z,48.60
2023-04-16T06:01:01.169Z,47.80
2023-04-16T06:02:01.583Z,45.80
2023-04-16T06:03:01.855Z,48.30
2023-04-16T06:04:02.197Z,47.20
2023-04-16T06:05:02.367Z,44.90
2023-04-16T06:06:02.750Z,46.40
2023-04-16T06:07:02.854Z,44.10
2023-04-16T06:08:03.159Z,45.80
2023-04-16T06:09:03.465Z,46.70
2023-04-16T06:10:03.839Z,45.30
2023-04-16T06:11:04.133Z,43.30
2023-04-16T06:12:04.502Z,44.90
2023-04-16T06:13:04.714Z,44.70
2023-04-16T06:14:04.957Z,45.90
2023-04-16T06:15:05.216Z,45.00
2023-04-16T06:16:05.475Z,43.00
2023-04-16T06:17:05.676Z,43.00
2023-04-16T06:18:05.923Z,43.70
2023-04-16T06:19:06.199Z,43.90
2023-04-16T06:20:06.505Z,44.20
2023-04-16T06:21:06.845Z,44.60
2023-04-16T06:22:07.207Z,42.10
2023-04-16T06:23:07.496Z,42.70
2023-04-16T06:24:07.816Z,41.70
2023-04-16T06:25:08.131Z,44.60
2023-04-16T06:26:08.462Z,44.10
2023-04-16T06:27:08.758Z,42.50
2023-04-16T06:28:09.061Z,42.60
2023-04-16T06:29:09.603Z,41.10
2023-04-16T06:30:09.720Z,41.10
2023-04-16T06:31:10.041Z,41.80
2023-04-16T06:32:10.245Z,40.50
2023-04-16T06:33:10.537Z,43.80
2023-04-16T06:34:10.882Z,40.70
2023-04-16T06:35:11.195Z,39.50
2023-04-16T06:36:11.670Z,39.40
2023-04-16T06:37:11.915Z,39.60
2023-04-16T06:38:12.078Z,39.40
2023-04-16T06:39:12.390Z,40.50
2023-04-16T06:40:12.719Z,39.60
2023-04-16T06:41:13.097Z,37.40
2023-04-16T06:42:13.332Z,38.70
2023-04-16T06:43:13.647Z,39.70
2023-04-16T06:44:13.858Z,38.60
2023-04-16T06:45:14.100Z,37.70
2023-04-16T06:46:14.397Z,38.70
2023-04-16T06:47:14.561Z,39.70
2023-04-16T06:48:14.857Z,40.40
2023-04-16T06:49:15.215Z,40.30
2023-04-16T06:50:15.445Z,40.50
2023-04-16T06:51:15.687Z,39.80
2023-04-16T06:52:15.864Z,39.00
2023-04-16T06:53:16.212Z,39.90
2023-04-16T06:54:16.516Z,39.80
2023-04-16T06:55:16.787Z,38.90
2023-04-16T06:56:17.079Z,41.20
2023-04-16T06:57:17.442Z,38.60
2023-04-16T06:58:17.717Z,37.80
2023-04-16T06:59:17.994Z,37.30
2023-04-16T07:00:18.331Z,37.80
2023-04-16T07:01:18.732Z,36.20
2023-04-16T07:02:19.053Z,38.90
2023-04-16T07:03:19.408Z,38.50
2023-04-16T07:04:19.567Z,36.30
2023-04-16T07:05:19.726Z,35.80
2023-04-16T07:06:20.033Z,35.70
2023-04-16T07:07:20.332Z,35.10
2023-04-16T07:08:20.632Z,33.60
2023-04-16T07:09:20.976Z,33.60
2023-04-16T07:10:21.220Z,33.80
2023-04-16T07:11:21.411Z,31.30
2023-04-16T07:12:22.754Z,29.90
2023-04-16T07:13:22.005Z,30.50
2023-04-16T07:14:22.212Z,30.00
2023-04-16T07:15:22.548Z,29.70
2023-04-16T07:16:22.927Z,28.80
2023-04-16T07:17:23.195Z,27.40
2023-04-16T07:18:23.502Z,28.20
2023-04-16T07:19:23.869Z,28.40
2023-04-16T07:20:24.184Z,28.30
2023-04-16T07:21:24.379Z,28.40
2023-04-16T07:22:24.739Z,28.00
2023-04-16T07:23:24.958Z,29.60
2023-04-16T07:24:25.195Z,28.70
2023-04-16T07:25:25.467Z,29.40
2023-04-16T07:26:25.613Z,30.20
2023-04-16T07:27:25.939Z,32.00
2023-04-16T07:28:26.269Z,34.10
2023-04-16T07:29:26.607Z,34.10
2023-04-16T07:30:26.976Z,34.60
2023-04-16T07:31:27.257Z,33.70
2023-04-16T07:32:27.592Z,35.00
2023-04-16T07:33:27.907Z,33.60
2023-04-16T07:34:28.232Z,35.40
2023-04-16T07:35:28.596Z,35.30
2023-04-16T07:36:28.819Z,35.90
2023-04-16T07:37:29.126Z,36.30
2023-04-16T07:38:29.473Z,37.30
2023-04-16T07:39:29.804Z,37.00
2023-04-16T07:40:30.066Z,37.40
2023-04-16T07:41:30.382Z,36.60
2023-04-16T07:42:30.602Z,38.50
2023-04-16T07:43:30.912Z,38.80
2023-04-16T07:44:31.246Z,38.40
2023-04-16T07:45:31.565Z,39.20
2023-04-16T07:46:45.464Z,36.40
2023-04-16T07:47:33.248Z,34.90
2023-04-16T07:48:32.532Z,36.00
2023-04-16T07:49:32.892Z,34.10
2023-04-16T07:50:33.074Z,35.10
2023-04-16T07:51:33.418Z,34.60
2023-04-16T07:52:33.599Z,34.30
2023-04-16T07:53:34.000Z,32.00
2023-04-16T07:54:34.258Z,31.50
2023-04-16T07:55:34.621Z,32.10
2023-04-16T07:56:34.838Z,32.50
2023-04-16T07:57:35.181Z,30.50
2023-04-16T07:58:35.427Z,32.00
2023-04-16T07:59:35.638Z,31.10
2023-04-16T08:00:35.943Z,30.20
2023-04-16T08:01:36.292Z,29.00
2023-04-16T08:02:36.689Z,30.40
2023-04-16T08:03:36.961Z,30.50
2023-04-16T08:04:37.267Z,31.50
2023-04-16T08:05:37.432Z,31.00
2023-04-16T08:06:37.715Z,31.90
2023-04-16T08:07:38.048Z,32.80
2023-04-16T08:08:38.391Z,31.40
2023-04-16T08:09:38.653Z,31.90
2023-04-16T08:10:38.848Z,32.30
2023-04-16T08:11:39.167Z,32.60
2023-04-16T08:12:39.519Z,31.20
2023-04-16T08:13:39.856Z,31.30
2023-04-16T08:14:40.077Z,31.50
2023-04-16T08:15:40.463Z,31.70
2023-04-16T08:16:40.685Z,31.70
2023-04-16T08:17:40.980Z,32.10
2023-04-16T08:18:41.162Z,30.40
2023-04-16T08:19:41.444Z,29.60
2023-04-16T08:20:41.629Z,29.30
2023-04-16T08:21:41.871Z,29.10
2023-04-16T08:22:42.125Z,30.10
2023-04-16T08:23:42.358Z,30.40
2023-04-16T08:24:42.556Z,31.90
2023-04-16T08:25:42.898Z,33.00
2023-04-16T08:26:43.220Z,32.80
2023-04-16T08:27:43.567Z,32.00
2023-04-16T08:28:43.876Z,33.90
2023-04-16T08:29:44.198Z,34.70
2023-04-16T08:30:44.584Z,33.90
2023-04-16T08:31:44.839Z,34.20
2023-04-16T08:32:46.410Z,35.20
2023-04-16T08:33:45.385Z,35.50
2023-04-16T08:34:45.652Z,34.00
2023-04-16T08:35:45.878Z,34.60
2023-04-16T08:36:46.249Z,34.60
2023-04-16T08:37:46.548Z,35.10
2023-04-16T08:38:46.692Z,36.40
2023-04-16T08:39:47.080Z,36.50
2023-04-16T08:40:47.279Z,35.50
2023-04-16T08:41:47.644Z,35.90
2023-04-16T08:42:47.875Z,33.60
2023-04-16T08:43:48.082Z,32.60
2023-04-16T08:44:49.252Z,32.50
2023-04-16T08:45:48.739Z,31.50
2023-04-16T08:46:49.116Z,30.70
2023-04-16T08:47:49.421Z,31.60
2023-04-16T08:48:49.633Z,30.00
2023-04-16T08:49:49.905Z,30.10
2023-04-16T08:50:51.195Z,30.60
2023-04-16T08:51:50.384Z,31.40
2023-04-16T08:52:50.588Z,30.80
2023-04-16T08:53:50.812Z,31.40
2023-04-16T08:55:00.829Z,29.50
2023-04-16T08:55:51.340Z,31.40
2023-04-16T08:56:51.662Z,29.80
2023-04-16T08:57:51.981Z,29.80
2023-04-16T08:58:52.321Z,31.70
2023-04-16T08:59:52.664Z,30.50
2023-04-16T09:00:53.030Z,30.10
2023-04-16T09:01:53.365Z,29.90
2023-04-16T09:02:53.787Z,31.30
2023-04-16T09:03:54.107Z,30.20
2023-04-16T09:04:54.270Z,30.10
2023-04-16T09:05:54.576Z,30.90
2023-04-16T09:06:54.708Z,29.70
2023-04-16T09:07:55.045Z,30.70
2023-04-16T09:08:55.405Z,31.10
2023-04-16T09:09:55.597Z,30.40
2023-04-16T09:10:55.932Z,30.60
2023-04-16T09:11:56.302Z,31.30
2023-04-16T09:12:56.553Z,31.40
2023-04-16T09:13:56.779Z,31.30
2023-04-16T09:14:56.989Z,31.40
2023-04-16T09:15:57.411Z,31.70
2023-04-16T09:16:57.625Z,31.20
2023-04-16T09:17:57.893Z,32.80
2023-04-16T09:18:58.094Z,32.70
2023-04-16T09:19:58.424Z,33.40
2023-04-16T09:20:58.821Z,33.20
2023-04-16T09:21:59.001Z,33.70
2023-04-16T09:22:59.310Z,33.30
2023-04-16T09:23:59.663Z,33.50
2023-04-16T09:24:59.878Z,33.10
2023-04-16T09:26:00.230Z,33.90
2023-04-16T09:27:00.547Z,34.90
2023-04-16T09:28:00.861Z,33.70
2023-04-16T09:29:01.202Z,33.40
2023-04-16T09:30:01.563Z,33.80
2023-04-16T09:31:01.856Z,33.30
2023-04-16T09:32:02.071Z,32.70
2023-04-16T09:33:02.375Z,32.70
2023-04-16T09:34:02.718Z,34.50
2023-04-16T09:35:02.952Z,32.70
2023-04-16T09:36:03.330Z,32.70
2023-04-16T09:37:03.641Z,31.90
2023-04-16T09:38:04.022Z,32.60
2023-04-16T09:39:04.221Z,30.60
2023-04-16T09:40:04.557Z,32.00
2023-04-16T09:41:04.928Z,31.10
2023-04-16T09:42:05.126Z,30.00
2023-04-16T09:43:05.489Z,29.90
2023-04-16T09:44:05.747Z,30.00
2023-04-16T09:45:06.402Z,29.70
2023-04-16T09:46:08.231Z,30.00
2023-04-16T09:47:06.680Z,29.40
2023-04-16T09:48:07.020Z,28.80
2023-04-16T09:49:07.336Z,29.30
2023-04-16T09:50:07.386Z,28.60
2023-04-16T09:51:07.719Z,28.60
2023-04-16T09:52:08.085Z,28.00
2023-04-16T09:53:08.278Z,29.60
2023-04-16T09:54:08.636Z,28.20
2023-04-16T09:55:08.868Z,27.50
2023-04-16T09:56:09.184Z,27.90
2023-04-16T09:57:09.523Z,28.40
2023-04-16T09:58:09.777Z,27.60
2023-04-16T09:59:10.187Z,28.00
2023-04-16T10:00:10.333Z,27.30
2023-04-16T10:01:10.718Z,28.20
2023-04-16T10:02:15.226Z,28.30
2023-04-16T10:03:12.322Z,28.10
2023-04-16T10:04:11.604Z,27.20
2023-04-16T10:05:11.795Z,29.10
2023-04-16T10:06:12.138Z,26.60
2023-04-16T10:07:12.477Z,28.40
2023-04-16T10:08:12.845Z,27.20
2023-04-16T10:09:13.136Z,27.90
2023-04-16T10:10:13.316Z,27.30
2023-04-16T10:11:13.561Z,28.20
2023-04-16T10:12:13.839Z,28.20
2023-04-16T10:13:14.140Z,28.90
2023-04-16T10:14:14.468Z,28.50
2023-04-16T10:15:14.800Z,29.20
2023-04-16T10:16:15.155Z,30.30
2023-04-16T10:17:15.475Z,30.20
2023-04-16T10:18:15.812Z,31.20
2023-04-16T10:19:16.136Z,32.90
2023-04-16T10:20:17.319Z,32.10
2023-04-16T10:21:16.768Z,32.50
2023-04-16T10:22:17.090Z,32.80
2023-04-16T10:23:17.460Z,32.90
2023-04-16T10:24:17.773Z,32.70
2023-04-16T10:25:18.000Z,34.90
2023-04-16T10:26:18.354Z,34.60
2023-04-16T10:27:18.573Z,34.00
2023-04-16T10:28:18.939Z,33.60
2023-04-16T10:29:19.142Z,32.60
2023-04-16T10:30:19.529Z,35.20
2023-04-16T10:31:19.843Z,35.20
2023-04-16T10:32:20.064Z,36.20
2023-04-16T10:33:20.258Z,35.00
2023-04-16T10:34:20.624Z,35.50
2023-04-16T10:35:20.928Z,35.90
2023-04-16T10:36:21.105Z,36.00
2023-04-16T10:37:21.324Z,35.80
2023-04-16T10:38:21.684Z,36.50
2023-04-16T10:39:21.898Z,34.40
2023-04-16T10:40:22.242Z,36.00
2023-04-16T10:41:22.487Z,35.20
2023-04-16T10:42:22.790Z,35.40
2023-04-16T10:43:23.141Z,33.40
2023-04-16T10:44:23.339Z,33.80
2023-04-16T10:45:23.714Z,33.20
2023-04-16T10:46:28.010Z,32.00
2023-04-16T10:47:24.211Z,34.10
2023-04-16T10:48:24.405Z,33.50
2023-04-16T10:49:24.743Z,33.50
2023-04-16T10:50:25.079Z,34.30
2023-04-16T10:51:25.409Z,34.30
2023-04-16T10:52:25.744Z,34.50
2023-04-16T10:53:26.204Z,34.90
2023-04-16T10:54:26.390Z,33.80
2023-04-16T10:55:26.602Z,31.50
2023-04-16T10:56:26.961Z,31.60
2023-04-16T10:57:27.186Z,29.90
2023-04-16T10:58:27.503Z,30.40
2023-04-16T10:59:27.878Z,30.00
2023-04-16T11:00:28.088Z,30.30
2023-04-16T11:01:28.455Z,29.70
2023-04-16T11:02:28.992Z,29.30
2023-04-16T11:03:29.069Z,29.30
2023-04-16T11:04:29.394Z,27.40
2023-04-16T11:05:29.570Z,27.60
2023-04-16T11:06:29.870Z,28.40
2023-04-16T11:07:30.203Z,28.60
2023-04-16T11:08:30.582Z,27.60
2023-04-16T11:09:30.810Z,27.90
2023-04-16T11:10:31.049Z,27.90
2023-04-16T11:11:31.268Z,26.10
2023-04-16T11:12:31.638Z,27.20
2023-04-16T11:13:31.886Z,27.00
2023-04-16T11:14:32.130Z,27.30
2023-04-16T11:15:32.339Z,26.50
2023-04-16T11:16:32.689Z,27.30
2023-04-16T11:17:33.077Z,26.00
2023-04-16T11:18:33.260Z,25.80
2023-04-16T11:19:33.639Z,26.60
2023-04-16T11:20:33.852Z,25.90
2023-04-16T11:21:34.090Z,26.60
2023-04-16T11:22:34.330Z,25.20
2023-04-16T11:23:34.595Z,25.60
2023-04-16T11:24:34.808Z,25.00
2023-04-16T11:25:35.017Z,24.80
2023-04-16T11:26:35.392Z,24.30
2023-04-16T11:27:35.580Z,24.80
2023-04-16T11:28:35.934Z,25.30
2023-04-16T11:29:36.167Z,25.50
2023-04-16T11:30:36.437Z,25.70
2023-04-16T11:31:36.682Z,26.10
2023-04-16T11:32:37.003Z,26.90
2023-04-16T11:33:37.307Z,27.00
2023-04-16T11:34:37.678Z,25.90
2023-04-16T11:35:37.933Z,26.80
2023-04-16T11:36:38.145Z,26.70
2023-04-16T11:37:38.503Z,27.40
2023-04-16T11:38:38.831Z,28.00
2023-04-16T11:39:39.134Z,27.10
2023-04-16T11:40:39.314Z,27.60
2023-04-16T11:41:39.534Z,27.40
2023-04-16T11:42:39.951Z,27.10
2023-04-16T11:43:40.165Z,27.70
2023-04-16T11:44:40.541Z,26.40
2023-04-16T11:45:40.734Z,26.70
2023-04-16T11:46:41.197Z,25.30
2023-04-16T11:47:41.376Z,25.00
2023-04-16T11:48:41.673Z,25.80
2023-04-16T11:49:42.030Z,26.00
2023-04-16T11:50:42.250Z,24.90
2023-04-16T11:51:42.608Z,24.70
2023-04-16T11:52:42.815Z,25.10
2023-04-16T11:53:43.141Z,25.60
2023-04-16T11:54:43.515Z,24.90
2023-04-16T11:55:43.750Z,25.10
2023-04-16T11:56:44.079Z,24.90
2023-04-16T11:57:44.460Z,24.80
2023-04-16T11:58:44.717Z,25.00
2023-04-16T12:00:02.011Z,24.70
2023-04-16T12:00:46.248Z,24.30
2023-04-16T12:01:45.565Z,23.90
2023-04-16T12:02:45.936Z,25.30
2023-04-16T12:03:46.354Z,25.90
2023-04-16T12:04:46.432Z,24.50
2023-04-16T12:05:46.661Z,23.60
2023-04-16T12:06:46.900Z,25.10
2023-04-16T12:07:47.216Z,24.50
2023-04-16T12:08:47.568Z,24.90
2023-04-16T12:09:47.822Z,24.80
2023-04-16T12:10:48.066Z,25.80
2023-04-16T12:11:48.264Z,25.40
2023-04-16T12:12:48.613Z,26.10
2023-04-16T12:13:48.960Z,27.00
2023-04-16T12:14:49.249Z,26.10
2023-04-16T12:15:49.461Z,26.20
2023-04-16T12:16:49.709Z,25.00
2023-04-16T12:17:50.042Z,27.10
2023-04-16T12:18:50.245Z,27.80
2023-04-16T12:19:50.564Z,27.90
2023-04-16T12:20:50.906Z,30.20
2023-04-16T12:21:51.191Z,29.50
2023-04-16T12:22:51.350Z,29.60
2023-04-16T12:23:51.680Z,29.80
2023-04-16T12:24:52.041Z,29.50
2023-04-16T12:25:52.278Z,29.80
2023-04-16T12:26:52.505Z,29.00
2023-04-16T12:27:54.074Z,28.00
2023-04-16T12:28:53.112Z,27.60
2023-04-16T12:29:53.470Z,28.60
2023-04-16T12:30:53.765Z,27.60
2023-04-16T12:31:53.961Z,27.10
2023-04-16T12:32:55.507Z,26.10
2023-04-16T12:33:54.406Z,26.20
2023-04-16T12:34:54.756Z,25.30
2023-04-16T12:35:54.986Z,25.30
2023-04-16T12:36:55.333Z,25.10
2023-04-16T12:37:55.743Z,24.90
2023-04-16T12:38:56.055Z,25.20
2023-04-16T12:39:56.259Z,25.80
2023-04-16T12:40:56.991Z,26.90
2023-04-16T12:41:56.907Z,26.60
2023-04-16T12:42:57.148Z,26.60
2023-04-16T12:43:57.353Z,26.90
2023-04-16T12:44:57.715Z,27.10
2023-04-16T12:45:58.024Z,26.90
2023-04-16T12:46:58.201Z,27.30
2023-04-16T12:47:58.566Z,26.10
2023-04-16T12:48:58.771Z,24.80
2023-04-16T12:49:59.126Z,23.90
2023-04-16T12:50:59.401Z,24.20
2023-04-16T12:51:59.611Z,24.20
2023-04-16T12:52:59.954Z,24.50
2023-04-16T12:54:00.187Z,25.70
2023-04-16T12:55:00.556Z,24.90
2023-04-16T12:56:00.736Z,25.10